sensor_id;sensor_type;location;lat;lon;timestamp;temperature;humidity
18365;DHT22;9309;52.126;11.616;2022-09-27T00:00:43;12.20;73.90
18365;DHT22;9309;52.126;11.616;2022-09-27T00:03:11;12.30;74.80
18365;DHT22;9309;52.126;11.616;2022-09-27T00:05:37;12.20;74.10
18365;DHT22;9309;52.126;11.616;2022-09-27T00:08:04;12.20;74.70
18365;DHT22;9309;52.126;11.616;2022-09-27T00:10:31;12.20;74.30
18365;DHT22;9309;52.126;11.616;2022-09-27T00:12:59;12.20;74.00
18365;DHT22;9309;52.126;11.616;2022-09-27T00:15:26;12.20;74.10
18365;DHT22;9309;52.126;11.616;2022-09-27T00:17:52;12.20;75.30
18365;DHT22;9309;52.126;11.616;2022-09-27T00:20:20;12.30;75.30
18365;DHT22;9309;52.126;11.616;2022-09-27T00:22:47;12.30;73.40
18365;DHT22;9309;52.126;11.616;2022-09-27T00:25:14;12.20;73.20
18365;DHT22;9309;52.126;11.616;2022-09-27T00:27:41;12.10;72.70
18365;DHT22;9309;52.126;11.616;2022-09-27T00:30:11;12.30;73.30
18365;DHT22;9309;52.126;11.616;2022-09-27T00:32:38;12.50;72.70
18365;DHT22;9309;52.126;11.616;2022-09-27T00:35:05;12.40;72.90
18365;DHT22;9309;52.126;11.616;2022-09-27T00:37:32;12.20;72.20
18365;DHT22;9309;52.126;11.616;2022-09-27T00:39:58;12.30;72.60
18365;DHT22;9309;52.126;11.616;2022-09-27T00:42:25;12.20;73.10
18365;DHT22;9309;52.126;11.616;2022-09-27T00:45:06;12.20;73.50
18365;DHT22;9309;52.126;11.616;2022-09-27T00:47:39;12.10;74.30
18365;DHT22;9309;52.126;11.616;2022-09-27T00:50:14;12.00;75.30
18365;DHT22;9309;52.126;11.616;2022-09-27T00:52:49;11.90;76.10
18365;DHT22;9309;52.126;11.616;2022-09-27T00:55:22;11.90;76.40
18365;DHT22;9309;52.126;11.616;2022-09-27T00:57:50;12.10;76.50
18365;DHT22;9309;52.126;11.616;2022-09-27T01:00:17;12.00;76.90
18365;DHT22;9309;52.126;11.616;2022-09-27T01:02:48;11.90;78.10
18365;DHT22;9309;52.126;11.616;2022-09-27T01:05:18;11.80;79.00
18365;DHT22;9309;52.126;11.616;2022-09-27T01:07:45;11.70;79.30
18365;DHT22;9309;52.126;11.616;2022-09-27T01:10:13;11.50;80.00
18365;DHT22;9309;52.126;11.616;2022-09-27T01:12:49;11.50;81.30
18365;DHT22;9309;52.126;11.616;2022-09-27T01:15:24;11.50;81.10
18365;DHT22;9309;52.126;11.616;2022-09-27T01:18:00;11.40;81.60
18365;DHT22;9309;52.126;11.616;2022-09-27T01:20:53;11.40;82.30
18365;DHT22;9309;52.126;11.616;2022-09-27T01:23:57;11.30;82.00
18365;DHT22;9309;52.126;11.616;2022-09-27T01:26:41;11.30;82.40
18365;DHT22;9309;52.126;11.616;2022-09-27T01:29:11;11.50;82.20
18365;DHT22;9309;52.126;11.616;2022-09-27T01:31:48;11.80;81.00
18365;DHT22;9309;52.126;11.616;2022-09-27T01:34:22;12.00;80.00
18365;DHT22;9309;52.126;11.616;2022-09-27T01:36:55;11.80;80.80
18365;DHT22;9309;52.126;11.616;2022-09-27T01:39:32;11.70;81.00
18365;DHT22;9309;52.126;11.616;2022-09-27T01:42:46;11.70;81.50
18365;DHT22;9309;52.126;11.616;2022-09-27T01:45:20;11.60;82.20
18365;DHT22;9309;52.126;11.616;2022-09-27T01:48:01;11.30;82.70
18365;DHT22;9309;52.126;11.616;2022-09-27T01:50:50;11.40;82.80
18365;DHT22;9309;52.126;11.616;2022-09-27T01:53:20;11.50;82.60
18365;DHT22;9309;52.126;11.616;2022-09-27T01:56:10;11.30;83.40
18365;DHT22;9309;52.126;11.616;2022-09-27T01:58:56;11.20;82.80
18365;DHT22;9309;52.126;11.616;2022-09-27T02:01:26;11.20;83.20
18365;DHT22;9309;52.126;11.616;2022-09-27T02:03:57;11.30;83.40
18365;DHT22;9309;52.126;11.616;2022-09-27T02:06:47;11.30;83.40
18365;DHT22;9309;52.126;11.616;2022-09-27T02:09:21;11.40;82.90
18365;DHT22;9309;52.126;11.616;2022-09-27T02:12:08;11.50;83.20
18365;DHT22;9309;52.126;11.616;2022-09-27T02:14:40;11.50;82.50
18365;DHT22;9309;52.126;11.616;2022-09-27T02:17:17;11.40;82.20
18365;DHT22;9309;52.126;11.616;2022-09-27T02:19:53;11.30;83.60
18365;DHT22;9309;52.126;11.616;2022-09-27T02:22:32;11.20;83.80
18365;DHT22;9309;52.126;11.616;2022-09-27T02:25:06;11.20;83.90
18365;DHT22;9309;52.126;11.616;2022-09-27T02:27:39;11.30;83.80
18365;DHT22;9309;52.126;11.616;2022-09-27T02:30:13;11.30;83.70
18365;DHT22;9309;52.126;11.616;2022-09-27T02:32:43;11.40;83.70
18365;DHT22;9309;52.126;11.616;2022-09-27T02:35:16;11.30;84.30
18365;DHT22;9309;52.126;11.616;2022-09-27T02:37:44;11.30;84.70
18365;DHT22;9309;52.126;11.616;2022-09-27T02:40:11;11.30;85.30
18365;DHT22;9309;52.126;11.616;2022-09-27T02:42:38;11.30;84.90
18365;DHT22;9309;52.126;11.616;2022-09-27T02:45:06;11.30;84.70
18365;DHT22;9309;52.126;11.616;2022-09-27T02:47:56;11.30;84.10
18365;DHT22;9309;52.126;11.616;2022-09-27T02:50:59;11.30;83.70
18365;DHT22;9309;52.126;11.616;2022-09-27T02:53:44;11.20;84.50
18365;DHT22;9309;52.126;11.616;2022-09-27T02:56:40;11.30;85.30
18365;DHT22;9309;52.126;11.616;2022-09-27T02:59:34;11.30;84.80
18365;DHT22;9309;52.126;11.616;2022-09-27T03:02:25;11.30;86.00
18365;DHT22;9309;52.126;11.616;2022-09-27T03:05:17;11.20;86.00
18365;DHT22;9309;52.126;11.616;2022-09-27T03:07:47;11.20;86.40
18365;DHT22;9309;52.126;11.616;2022-09-27T03:10:19;11.20;86.70
18365;DHT22;9309;52.126;11.616;2022-09-27T03:12:46;11.20;86.40
18365;DHT22;9309;52.126;11.616;2022-09-27T03:15:13;11.10;86.70
18365;DHT22;9309;52.126;11.616;2022-09-27T03:18:03;11.20;86.70
18365;DHT22;9309;52.126;11.616;2022-09-27T03:20:51;11.20;86.50
18365;DHT22;9309;52.126;11.616;2022-09-27T03:23:20;11.20;87.40
18365;DHT22;9309;52.126;11.616;2022-09-27T03:25:47;11.20;87.10
18365;DHT22;9309;52.126;11.616;2022-09-27T03:28:14;11.20;86.70
18365;DHT22;9309;52.126;11.616;2022-09-27T03:30:44;11.10;87.10
18365;DHT22;9309;52.126;11.616;2022-09-27T03:33:15;11.20;87.10
18365;DHT22;9309;52.126;11.616;2022-09-27T03:35:48;11.40;86.40
18365;DHT22;9309;52.126;11.616;2022-09-27T03:38:15;11.50;86.60
18365;DHT22;9309;52.126;11.616;2022-09-27T03:40:43;11.50;86.20
18365;DHT22;9309;52.126;11.616;2022-09-27T03:43:10;11.50;85.20
18365;DHT22;9309;52.126;11.616;2022-09-27T03:45:37;11.40;86.10
18365;DHT22;9309;52.126;11.616;2022-09-27T03:48:07;11.40;86.50
18365;DHT22;9309;52.126;11.616;2022-09-27T03:50:34;11.20;87.60
18365;DHT22;9309;52.126;11.616;2022-09-27T03:53:01;11.30;87.70
18365;DHT22;9309;52.126;11.616;2022-09-27T03:55:27;11.30;86.90
18365;DHT22;9309;52.126;11.616;2022-09-27T03:57:55;11.20;87.00
18365;DHT22;9309;52.126;11.616;2022-09-27T04:00:23;11.20;86.90
18365;DHT22;9309;52.126;11.616;2022-09-27T04:02:50;11.20;86.50
18365;DHT22;9309;52.126;11.616;2022-09-27T04:05:23;11.20;86.90
18365;DHT22;9309;52.126;11.616;2022-09-27T04:07:53;11.30;86.70
18365;DHT22;9309;52.126;11.616;2022-09-27T04:10:21;11.30;86.50
18365;DHT22;9309;52.126;11.616;2022-09-27T04:12:49;11.40;85.90
18365;DHT22;9309;52.126;11.616;2022-09-27T04:15:18;11.50;85.30
18365;DHT22;9309;52.126;11.616;2022-09-27T04:17:45;11.50;84.90
18365;DHT22;9309;52.126;11.616;2022-09-27T04:20:35;11.60;85.10
18365;DHT22;9309;52.126;11.616;2022-09-27T04:23:05;11.50;85.50
18365;DHT22;9309;52.126;11.616;2022-09-27T04:25:35;11.40;85.90
18365;DHT22;9309;52.126;11.616;2022-09-27T04:28:17;11.40;86.00
18365;DHT22;9309;52.126;11.616;2022-09-27T04:30:45;11.30;86.30
18365;DHT22;9309;52.126;11.616;2022-09-27T04:33:48;11.40;85.90
18365;DHT22;9309;52.126;11.616;2022-09-27T04:36:25;11.10;87.10
18365;DHT22;9309;52.126;11.616;2022-09-27T04:39:02;11.20;87.40
18365;DHT22;9309;52.126;11.616;2022-09-27T04:41:30;11.30;86.70
18365;DHT22;9309;52.126;11.616;2022-09-27T04:43:58;11.20;87.00
18365;DHT22;9309;52.126;11.616;2022-09-27T04:46:27;11.00;87.00
18365;DHT22;9309;52.126;11.616;2022-09-27T04:48:56;11.10;87.80
18365;DHT22;9309;52.126;11.616;2022-09-27T04:51:23;11.30;86.30
18365;DHT22;9309;52.126;11.616;2022-09-27T04:53:49;11.10;87.00
18365;DHT22;9309;52.126;11.616;2022-09-27T04:56:17;11.20;87.10
18365;DHT22;9309;52.126;11.616;2022-09-27T04:58:44;11.20;86.60
18365;DHT22;9309;52.126;11.616;2022-09-27T05:01:12;11.20;86.10
18365;DHT22;9309;52.126;11.616;2022-09-27T05:04:06;11.30;86.00
18365;DHT22;9309;52.126;11.616;2022-09-27T05:06:36;11.30;87.00
18365;DHT22;9309;52.126;11.616;2022-09-27T05:09:16;11.10;86.90
18365;DHT22;9309;52.126;11.616;2022-09-27T05:11:48;11.20;87.70
18365;DHT22;9309;52.126;11.616;2022-09-27T05:14:15;11.30;86.90
18365;DHT22;9309;52.126;11.616;2022-09-27T05:16:54;11.20;86.80
18365;DHT22;9309;52.126;11.616;2022-09-27T05:19:41;11.10;87.10
18365;DHT22;9309;52.126;11.616;2022-09-27T05:22:18;11.20;87.70
18365;DHT22;9309;52.126;11.616;2022-09-27T05:24:45;11.20;86.70
18365;DHT22;9309;52.126;11.616;2022-09-27T05:27:14;11.30;86.80
18365;DHT22;9309;52.126;11.616;2022-09-27T05:29:45;11.30;86.70
18365;DHT22;9309;52.126;11.616;2022-09-27T05:32:20;11.30;86.60
18365;DHT22;9309;52.126;11.616;2022-09-27T05:34:55;11.40;86.80
18365;DHT22;9309;52.126;11.616;2022-09-27T05:37:23;11.40;85.90
18365;DHT22;9309;52.126;11.616;2022-09-27T05:39:50;11.40;86.00
18365;DHT22;9309;52.126;11.616;2022-09-27T05:42:17;11.40;86.00
18365;DHT22;9309;52.126;11.616;2022-09-27T05:44:44;11.40;85.70
18365;DHT22;9309;52.126;11.616;2022-09-27T05:47:11;11.30;86.60
18365;DHT22;9309;52.126;11.616;2022-09-27T05:49:38;11.30;86.30
18365;DHT22;9309;52.126;11.616;2022-09-27T05:52:08;11.40;85.60
18365;DHT22;9309;52.126;11.616;2022-09-27T05:54:35;11.50;86.00
18365;DHT22;9309;52.126;11.616;2022-09-27T05:57:06;11.70;85.30
18365;DHT22;9309;52.126;11.616;2022-09-27T05:59:46;11.80;84.90
18365;DHT22;9309;52.126;11.616;2022-09-27T06:02:33;12.00;84.50
18365;DHT22;9309;52.126;11.616;2022-09-27T06:05:19;11.90;84.10
18365;DHT22;9309;52.126;11.616;2022-09-27T06:08:08;12.00;84.00
18365;DHT22;9309;52.126;11.616;2022-09-27T06:10:40;11.80;83.20
18365;DHT22;9309;52.126;11.616;2022-09-27T06:13:10;11.80;83.70
18365;DHT22;9309;52.126;11.616;2022-09-27T06:15:41;11.90;83.50
18365;DHT22;9309;52.126;11.616;2022-09-27T06:18:10;11.90;83.00
18365;DHT22;9309;52.126;11.616;2022-09-27T06:20:39;11.70;83.20
18365;DHT22;9309;52.126;11.616;2022-09-27T06:23:08;11.70;84.40
18365;DHT22;9309;52.126;11.616;2022-09-27T06:25:36;11.90;83.60
18365;DHT22;9309;52.126;11.616;2022-09-27T06:28:12;11.90;82.40
18365;DHT22;9309;52.126;11.616;2022-09-27T06:30:43;11.70;83.00
18365;DHT22;9309;52.126;11.616;2022-09-27T06:33:22;11.60;83.60
18365;DHT22;9309;52.126;11.616;2022-09-27T06:35:51;11.90;83.30
18365;DHT22;9309;52.126;11.616;2022-09-27T06:38:19;11.90;83.00
18365;DHT22;9309;52.126;11.616;2022-09-27T06:40:53;12.10;82.10
18365;DHT22;9309;52.126;11.616;2022-09-27T06:43:41;11.80;82.70
18365;DHT22;9309;52.126;11.616;2022-09-27T06:46:34;12.00;82.90
18365;DHT22;9309;52.126;11.616;2022-09-27T06:49:20;11.90;83.40
18365;DHT22;9309;52.126;11.616;2022-09-27T06:51:47;12.20;82.80
18365;DHT22;9309;52.126;11.616;2022-09-27T06:54:16;12.10;81.50
18365;DHT22;9309;52.126;11.616;2022-09-27T06:56:42;12.10;82.20
18365;DHT22;9309;52.126;11.616;2022-09-27T06:59:09;12.10;81.10
18365;DHT22;9309;52.126;11.616;2022-09-27T07:02:08;12.20;82.20
18365;DHT22;9309;52.126;11.616;2022-09-27T07:04:47;12.40;81.40
18365;DHT22;9309;52.126;11.616;2022-09-27T07:07:34;12.70;80.60
18365;DHT22;9309;52.126;11.616;2022-09-27T07:10:03;12.70;80.10
18365;DHT22;9309;52.126;11.616;2022-09-27T07:12:33;12.80;79.20
18365;DHT22;9309;52.126;11.616;2022-09-27T07:15:00;12.70;80.40
18365;DHT22;9309;52.126;11.616;2022-09-27T07:17:28;12.70;80.00
18365;DHT22;9309;52.126;11.616;2022-09-27T07:19:56;13.00;80.00
18365;DHT22;9309;52.126;11.616;2022-09-27T07:22:24;13.30;77.40
18365;DHT22;9309;52.126;11.616;2022-09-27T07:24:55;13.40;77.10
18365;DHT22;9309;52.126;11.616;2022-09-27T07:27:25;13.20;78.50
18365;DHT22;9309;52.126;11.616;2022-09-27T07:29:53;13.40;75.70
18365;DHT22;9309;52.126;11.616;2022-09-27T07:32:22;13.50;76.80
18365;DHT22;9309;52.126;11.616;2022-09-27T07:34:51;13.50;76.70
18365;DHT22;9309;52.126;11.616;2022-09-27T07:37:21;13.40;75.70
18365;DHT22;9309;52.126;11.616;2022-09-27T07:39:48;13.10;76.40
18365;DHT22;9309;52.126;11.616;2022-09-27T07:42:15;13.00;76.40
18365;DHT22;9309;52.126;11.616;2022-09-27T07:44:47;13.00;77.00
18365;DHT22;9309;52.126;11.616;2022-09-27T07:47:34;12.70;78.70
18365;DHT22;9309;52.126;11.616;2022-09-27T07:50:04;12.20;80.60
18365;DHT22;9309;52.126;11.616;2022-09-27T07:52:44;11.90;82.30
18365;DHT22;9309;52.126;11.616;2022-09-27T07:55:27;11.70;83.40
18365;DHT22;9309;52.126;11.616;2022-09-27T07:58:05;11.70;83.90
18365;DHT22;9309;52.126;11.616;2022-09-27T08:00:36;11.60;84.10
18365;DHT22;9309;52.126;11.616;2022-09-27T08:03:04;11.30;83.90
18365;DHT22;9309;52.126;11.616;2022-09-27T08:05:33;11.30;85.40
18365;DHT22;9309;52.126;11.616;2022-09-27T08:08:00;11.40;84.90
18365;DHT22;9309;52.126;11.616;2022-09-27T08:10:28;11.40;85.50
18365;DHT22;9309;52.126;11.616;2022-09-27T08:13:01;11.50;84.30
18365;DHT22;9309;52.126;11.616;2022-09-27T08:15:30;11.60;83.60
18365;DHT22;9309;52.126;11.616;2022-09-27T08:17:59;11.50;84.00
18365;DHT22;9309;52.126;11.616;2022-09-27T08:21:05;11.50;83.40
18365;DHT22;9309;52.126;11.616;2022-09-27T08:23:41;11.70;81.80
18365;DHT22;9309;52.126;11.616;2022-09-27T08:26:13;11.70;82.50
18365;DHT22;9309;52.126;11.616;2022-09-27T08:28:50;11.70;81.70
18365;DHT22;9309;52.126;11.616;2022-09-27T08:31:19;11.70;82.00
18365;DHT22;9309;52.126;11.616;2022-09-27T08:33:49;11.80;82.60
18365;DHT22;9309;52.126;11.616;2022-09-27T08:36:16;11.90;82.80
18365;DHT22;9309;52.126;11.616;2022-09-27T08:38:43;12.00;80.90
18365;DHT22;9309;52.126;11.616;2022-09-27T08:41:18;11.90;81.00
18365;DHT22;9309;52.126;11.616;2022-09-27T08:43:51;11.90;81.10
18365;DHT22;9309;52.126;11.616;2022-09-27T08:46:28;11.60;81.60
18365;DHT22;9309;52.126;11.616;2022-09-27T08:49:04;11.40;82.30
18365;DHT22;9309;52.126;11.616;2022-09-27T08:51:32;11.40;82.60
18365;DHT22;9309;52.126;11.616;2022-09-27T08:54:03;11.30;82.50
18365;DHT22;9309;52.126;11.616;2022-09-27T08:56:32;11.10;83.90
18365;DHT22;9309;52.126;11.616;2022-09-27T08:59:05;11.30;84.50
18365;DHT22;9309;52.126;11.616;2022-09-27T09:01:37;11.40;83.90
18365;DHT22;9309;52.126;11.616;2022-09-27T09:04:14;11.60;82.90
18365;DHT22;9309;52.126;11.616;2022-09-27T09:06:48;11.60;83.10
18365;DHT22;9309;52.126;11.616;2022-09-27T09:09:28;11.60;83.40
18365;DHT22;9309;52.126;11.616;2022-09-27T09:12:15;11.70;83.00
18365;DHT22;9309;52.126;11.616;2022-09-27T09:15:12;11.90;83.40
18365;DHT22;9309;52.126;11.616;2022-09-27T09:20:57;11.90;83.20
18365;DHT22;9309;52.126;11.616;2022-09-27T09:23:45;11.90;83.00
18365;DHT22;9309;52.126;11.616;2022-09-27T09:26:24;12.10;83.00
18365;DHT22;9309;52.126;11.616;2022-09-27T09:29:09;12.20;83.30
18365;DHT22;9309;52.126;11.616;2022-09-27T09:31:41;12.30;83.30
18365;DHT22;9309;52.126;11.616;2022-09-27T09:34:17;12.40;83.40
18365;DHT22;9309;52.126;11.616;2022-09-27T09:36:51;12.30;82.60
18365;DHT22;9309;52.126;11.616;2022-09-27T09:39:24;12.30;82.80
18365;DHT22;9309;52.126;11.616;2022-09-27T09:42:02;12.20;83.90
18365;DHT22;9309;52.126;11.616;2022-09-27T09:44:32;12.40;82.60
18365;DHT22;9309;52.126;11.616;2022-09-27T09:47:02;12.20;81.70
18365;DHT22;9309;52.126;11.616;2022-09-27T09:49:32;12.00;83.20
18365;DHT22;9309;52.126;11.616;2022-09-27T09:52:05;11.80;83.00
18365;DHT22;9309;52.126;11.616;2022-09-27T09:54:37;11.60;84.20
18365;DHT22;9309;52.126;11.616;2022-09-27T09:57:10;11.60;84.00
18365;DHT22;9309;52.126;11.616;2022-09-27T09:59:42;11.70;84.80
18365;DHT22;9309;52.126;11.616;2022-09-27T10:02:25;11.70;84.60
18365;DHT22;9309;52.126;11.616;2022-09-27T10:05:00;11.80;82.70
18365;DHT22;9309;52.126;11.616;2022-09-27T10:07:31;11.80;82.30
18365;DHT22;9309;52.126;11.616;2022-09-27T10:10:00;11.90;83.60
18365;DHT22;9309;52.126;11.616;2022-09-27T10:12:46;11.90;83.60
18365;DHT22;9309;52.126;11.616;2022-09-27T10:15:17;11.90;83.00
18365;DHT22;9309;52.126;11.616;2022-09-27T10:17:47;11.80;83.10
18365;DHT22;9309;52.126;11.616;2022-09-27T10:20:25;11.70;83.90
18365;DHT22;9309;52.126;11.616;2022-09-27T10:22:57;11.70;84.00
18365;DHT22;9309;52.126;11.616;2022-09-27T10:25:46;11.50;84.50
18365;DHT22;9309;52.126;11.616;2022-09-27T10:28:35;11.40;85.70
18365;DHT22;9309;52.126;11.616;2022-09-27T10:31:05;11.30;87.20
18365;DHT22;9309;52.126;11.616;2022-09-27T10:33:39;11.20;86.20
18365;DHT22;9309;52.126;11.616;2022-09-27T10:36:22;10.90;87.60
18365;DHT22;9309;52.126;11.616;2022-09-27T10:38:53;10.90;87.20
18365;DHT22;9309;52.126;11.616;2022-09-27T10:41:32;10.90;88.60
18365;DHT22;9309;52.126;11.616;2022-09-27T10:44:27;10.90;88.00
18365;DHT22;9309;52.126;11.616;2022-09-27T10:47:23;11.10;88.30
18365;DHT22;9309;52.126;11.616;2022-09-27T10:50:03;11.10;87.10
18365;DHT22;9309;52.126;11.616;2022-09-27T10:52:45;11.00;87.70
18365;DHT22;9309;52.126;11.616;2022-09-27T10:55:20;11.00;87.50
18365;DHT22;9309;52.126;11.616;2022-09-27T10:57:51;11.00;87.50
18365;DHT22;9309;52.126;11.616;2022-09-27T11:00:21;11.30;87.70
18365;DHT22;9309;52.126;11.616;2022-09-27T11:02:51;11.60;85.80
18365;DHT22;9309;52.126;11.616;2022-09-27T11:05:30;12.00;85.50
18365;DHT22;9309;52.126;11.616;2022-09-27T11:08:00;13.50;79.60
18365;DHT22;9309;52.126;11.616;2022-09-27T11:10:42;14.30;72.10
18365;DHT22;9309;52.126;11.616;2022-09-27T11:13:14;14.80;69.90
18365;DHT22;9309;52.126;11.616;2022-09-27T11:16:02;14.80;68.40
18365;DHT22;9309;52.126;11.616;2022-09-27T11:18:40;13.80;72.00
18365;DHT22;9309;52.126;11.616;2022-09-27T11:21:20;12.90;74.20
18365;DHT22;9309;52.126;11.616;2022-09-27T11:24:02;12.50;75.80
18365;DHT22;9309;52.126;11.616;2022-09-27T11:26:44;12.10;77.70
18365;DHT22;9309;52.126;11.616;2022-09-27T11:29:21;12.20;78.80
18365;DHT22;9309;52.126;11.616;2022-09-27T11:32:18;12.50;77.90
18365;DHT22;9309;52.126;11.616;2022-09-27T11:34:58;13.60;74.70
18365;DHT22;9309;52.126;11.616;2022-09-27T11:37:35;14.10;70.90
18365;DHT22;9309;52.126;11.616;2022-09-27T11:40:17;13.50;71.40
18365;DHT22;9309;52.126;11.616;2022-09-27T11:45:57;12.70;74.40
18365;DHT22;9309;52.126;11.616;2022-09-27T11:48:37;12.40;73.90
18365;DHT22;9309;52.126;11.616;2022-09-27T11:51:17;12.40;74.70
18365;DHT22;9309;52.126;11.616;2022-09-27T11:53:58;12.50;74.00
18365;DHT22;9309;52.126;11.616;2022-09-27T11:56:39;12.50;74.50
18365;DHT22;9309;52.126;11.616;2022-09-27T11:59:36;12.40;73.80
18365;DHT22;9309;52.126;11.616;2022-09-27T12:02:21;12.60;73.70
18365;DHT22;9309;52.126;11.616;2022-09-27T12:05:04;12.80;74.20
18365;DHT22;9309;52.126;11.616;2022-09-27T12:07:40;12.90;72.10
18365;DHT22;9309;52.126;11.616;2022-09-27T12:10:12;13.00;70.90
18365;DHT22;9309;52.126;11.616;2022-09-27T12:12:44;12.80;72.40
18365;DHT22;9309;52.126;11.616;2022-09-27T12:15:16;12.80;71.90
18365;DHT22;9309;52.126;11.616;2022-09-27T12:17:46;13.60;69.70
18365;DHT22;9309;52.126;11.616;2022-09-27T12:20:18;15.20;62.90
18365;DHT22;9309;52.126;11.616;2022-09-27T12:22:53;15.90;60.50
18365;DHT22;9309;52.126;11.616;2022-09-27T12:25:26;15.20;62.00
18365;DHT22;9309;52.126;11.616;2022-09-27T12:28:03;14.30;64.00
18365;DHT22;9309;52.126;11.616;2022-09-27T12:30:37;14.30;65.60
18365;DHT22;9309;52.126;11.616;2022-09-27T12:33:10;14.70;64.60
18365;DHT22;9309;52.126;11.616;2022-09-27T12:35:45;14.50;62.40
18365;DHT22;9309;52.126;11.616;2022-09-27T12:38:17;14.50;63.50
18365;DHT22;9309;52.126;11.616;2022-09-27T12:40:48;14.20;61.70
18365;DHT22;9309;52.126;11.616;2022-09-27T12:43:20;14.10;64.00
18365;DHT22;9309;52.126;11.616;2022-09-27T12:46:02;13.60;64.20
18365;DHT22;9309;52.126;11.616;2022-09-27T12:48:40;13.50;66.00
18365;DHT22;9309;52.126;11.616;2022-09-27T12:51:13;13.60;65.60
18365;DHT22;9309;52.126;11.616;2022-09-27T12:53:56;14.00;64.20
18365;DHT22;9309;52.126;11.616;2022-09-27T12:56:42;14.20;63.60
18365;DHT22;9309;52.126;11.616;2022-09-27T12:59:25;14.00;64.30
18365;DHT22;9309;52.126;11.616;2022-09-27T13:02:17;14.20;64.10
18365;DHT22;9309;52.126;11.616;2022-09-27T13:05:03;15.00;62.40
18365;DHT22;9309;52.126;11.616;2022-09-27T13:07:45;15.80;59.40
18365;DHT22;9309;52.126;11.616;2022-09-27T13:10:28;15.50;57.60
18365;DHT22;9309;52.126;11.616;2022-09-27T13:13:03;15.40;58.90
18365;DHT22;9309;52.126;11.616;2022-09-27T13:15:31;15.80;57.00
18365;DHT22;9309;52.126;11.616;2022-09-27T13:18:03;16.30;56.80
18365;DHT22;9309;52.126;11.616;2022-09-27T13:20:44;17.20;52.70
18365;DHT22;9309;52.126;11.616;2022-09-27T13:23:56;16.70;53.50
18365;DHT22;9309;52.126;11.616;2022-09-27T13:26:48;16.10;55.00
18365;DHT22;9309;52.126;11.616;2022-09-27T13:29:30;15.40;56.40
18365;DHT22;9309;52.126;11.616;2022-09-27T13:32:17;14.60;58.90
18365;DHT22;9309;52.126;11.616;2022-09-27T13:35:18;14.40;61.20
18365;DHT22;9309;52.126;11.616;2022-09-27T13:37:52;14.10;62.00
18365;DHT22;9309;52.126;11.616;2022-09-27T13:40:29;13.80;63.00
18365;DHT22;9309;52.126;11.616;2022-09-27T13:46:06;13.60;64.10
18365;DHT22;9309;52.126;11.616;2022-09-27T13:48:48;13.40;64.30
18365;DHT22;9309;52.126;11.616;2022-09-27T13:51:27;13.40;64.60
18365;DHT22;9309;52.126;11.616;2022-09-27T13:53:58;13.80;64.30
18365;DHT22;9309;52.126;11.616;2022-09-27T13:56:48;14.00;63.30
18365;DHT22;9309;52.126;11.616;2022-09-27T13:59:21;13.70;64.10
18365;DHT22;9309;52.126;11.616;2022-09-27T14:02:26;13.60;64.40
18365;DHT22;9309;52.126;11.616;2022-09-27T14:04:55;13.70;64.90
18365;DHT22;9309;52.126;11.616;2022-09-27T14:07:32;13.80;64.40
18365;DHT22;9309;52.126;11.616;2022-09-27T14:10:03;13.80;65.30
18365;DHT22;9309;52.126;11.616;2022-09-27T14:12:38;13.70;64.10
18365;DHT22;9309;52.126;11.616;2022-09-27T14:15:16;13.60;64.20
18365;DHT22;9309;52.126;11.616;2022-09-27T14:17:44;13.60;64.60
18365;DHT22;9309;52.126;11.616;2022-09-27T14:20:34;13.40;65.30
18365;DHT22;9309;52.126;11.616;2022-09-27T14:23:05;13.60;64.50
18365;DHT22;9309;52.126;11.616;2022-09-27T14:25:44;13.50;64.80
18365;DHT22;9309;52.126;11.616;2022-09-27T14:28:20;13.50;64.70
18365;DHT22;9309;52.126;11.616;2022-09-27T14:31:06;13.60;64.90
18365;DHT22;9309;52.126;11.616;2022-09-27T14:33:48;13.70;63.30
18365;DHT22;9309;52.126;11.616;2022-09-27T14:36:24;13.70;62.50
18365;DHT22;9309;52.126;11.616;2022-09-27T14:39:19;13.60;63.20
18365;DHT22;9309;52.126;11.616;2022-09-27T14:41:52;13.50;62.00
18365;DHT22;9309;52.126;11.616;2022-09-27T14:44:20;13.40;61.30
18365;DHT22;9309;52.126;11.616;2022-09-27T14:46:47;13.40;60.90
18365;DHT22;9309;52.126;11.616;2022-09-27T14:49:20;13.40;61.10
18365;DHT22;9309;52.126;11.616;2022-09-27T14:51:51;13.40;61.30
18365;DHT22;9309;52.126;11.616;2022-09-27T14:54:24;13.30;61.30
18365;DHT22;9309;52.126;11.616;2022-09-27T14:56:52;13.10;62.30
18365;DHT22;9309;52.126;11.616;2022-09-27T14:59:23;13.00;61.90
18365;DHT22;9309;52.126;11.616;2022-09-27T15:01:55;12.90;62.30
18365;DHT22;9309;52.126;11.616;2022-09-27T15:04:25;12.80;62.30
18365;DHT22;9309;52.126;11.616;2022-09-27T15:06:53;12.60;62.70
18365;DHT22;9309;52.126;11.616;2022-09-27T15:09:22;12.50;63.70
18365;DHT22;9309;52.126;11.616;2022-09-27T15:11:52;12.40;65.00
18365;DHT22;9309;52.126;11.616;2022-09-27T15:14:20;12.50;64.60
18365;DHT22;9309;52.126;11.616;2022-09-27T15:16:49;12.40;65.60
18365;DHT22;9309;52.126;11.616;2022-09-27T15:19:22;12.40;64.60
18365;DHT22;9309;52.126;11.616;2022-09-27T15:21:49;12.40;64.40
18365;DHT22;9309;52.126;11.616;2022-09-27T15:24:39;12.40;64.30
18365;DHT22;9309;52.126;11.616;2022-09-27T15:27:18;12.50;65.10
18365;DHT22;9309;52.126;11.616;2022-09-27T15:29:51;12.40;65.10
18365;DHT22;9309;52.126;11.616;2022-09-27T15:32:22;12.40;65.10
18365;DHT22;9309;52.126;11.616;2022-09-27T15:34:50;12.50;64.80
18365;DHT22;9309;52.126;11.616;2022-09-27T15:37:25;12.60;64.20
18365;DHT22;9309;52.126;11.616;2022-09-27T15:39:54;12.60;63.40
18365;DHT22;9309;52.126;11.616;2022-09-27T15:42:23;12.50;64.20
18365;DHT22;9309;52.126;11.616;2022-09-27T15:44:51;12.40;64.30
18365;DHT22;9309;52.126;11.616;2022-09-27T15:47:41;12.30;64.20
18365;DHT22;9309;52.126;11.616;2022-09-27T15:50:37;12.40;64.50
18365;DHT22;9309;52.126;11.616;2022-09-27T15:53:05;12.50;63.60
18365;DHT22;9309;52.126;11.616;2022-09-27T15:55:39;12.40;63.90
18365;DHT22;9309;52.126;11.616;2022-09-27T15:58:13;12.50;63.70
18365;DHT22;9309;52.126;11.616;2022-09-27T16:00:50;12.40;63.80
18365;DHT22;9309;52.126;11.616;2022-09-27T16:03:17;12.30;64.40
18365;DHT22;9309;52.126;11.616;2022-09-27T16:05:44;12.20;64.40
18365;DHT22;9309;52.126;11.616;2022-09-27T16:08:11;12.20;65.30
18365;DHT22;9309;52.126;11.616;2022-09-27T16:10:43;12.20;64.80
18365;DHT22;9309;52.126;11.616;2022-09-27T16:13:10;12.20;64.60
18365;DHT22;9309;52.126;11.616;2022-09-27T16:15:38;12.30;64.60
18365;DHT22;9309;52.126;11.616;2022-09-27T16:18:06;12.10;64.90
18365;DHT22;9309;52.126;11.616;2022-09-27T16:20:35;12.00;65.60
18365;DHT22;9309;52.126;11.616;2022-09-27T16:23:01;12.00;66.10
18365;DHT22;9309;52.126;11.616;2022-09-27T16:25:29;11.90;66.70
18365;DHT22;9309;52.126;11.616;2022-09-27T16:27:58;12.00;66.60